Time;durP1;ratioP1;P1;durP2;ratioP2;P2;SDS_P1;SDS_P2;PMS_P1;PMS_P2;Temp;Humidity;BMP_temperature;BMP_pressure;BME280_temperature;BME280_humidity;BME280_pressure;Samples;Min_cycle;Max_cycle;Signal;HPM_P1;HPM_P2
2023/05/26 00:00:57;;;;;;;53.77;36.40;;;;;;;;;;745894;187;917981;-62
2023/05/26 00:03:23;;;;;;;57.70;40.47;;;;;;;;;;743435;187;923705;-61
2023/05/26 00:05:49;;;;;;;56.37;35.10;;;;;;;;;;738983;187;918279;-65
2023/05/26 00:08:14;;;;;;;57.53;37.17;;;;;;;;;;744802;188;915887;-64
2023/05/26 00:10:40;;;;;;;64.30;37.90;;;;;;;;;;740934;187;920699;-65
2023/05/26 00:13:06;;;;;;;49.47;35.00;;;;;;;;;;737785;187;917261;-62
2023/05/26 00:15:32;;;;;;;58.13;37.63;;;;;;;;;;743378;188;919371;-65
2023/05/26 00:17:58;;;;;;;59.07;34.90;;;;;;;;;;738176;188;923459;-61
2023/05/26 00:20:24;;;;;;;55.27;34.50;;;;;;;;;;740401;187;919168;-65
2023/05/26 00:22:50;;;;;;;55.87;37.50;;;;;;;;;;744908;187;849441;-61
2023/05/26 00:25:15;;;;;;;56.53;35.57;;;;;;;;;;734381;187;920942;-66
2023/05/26 00:27:41;;;;;;;59.17;33.77;;;;;;;;;;739869;186;918203;-61
2023/05/26 00:30:08;;;;;;;56.45;35.03;;;;;;;;;;735108;187;921759;-64
2023/05/26 00:32:33;;;;;;;63.60;37.22;;;;;;;;;;741942;187;870697;-61
2023/05/26 00:34:59;;;;;;;55.33;35.43;;;;;;;;;;736067;188;916090;-62
2023/05/26 00:37:25;;;;;;;66.50;39.97;;;;;;;;;;724522;187;917513;-62
2023/05/26 00:39:51;;;;;;;54.17;33.70;;;;;;;;;;740352;188;915788;-61
2023/05/26 00:42:17;;;;;;;55.70;35.07;;;;;;;;;;739298;187;917901;-65
2023/05/26 00:44:43;;;;;;;62.50;36.77;;;;;;;;;;737944;187;918009;-65
2023/05/26 00:47:09;;;;;;;61.10;36.28;;;;;;;;;;743686;187;918335;-66
2023/05/26 00:49:35;;;;;;;56.40;33.73;;;;;;;;;;746412;186;919637;-67
2023/05/26 00:52:01;;;;;;;66.50;40.03;;;;;;;;;;738736;188;916585;-62
2023/05/26 00:54:26;;;;;;;58.13;36.67;;;;;;;;;;739763;188;919139;-62
2023/05/26 00:56:54;;;;;;;63.97;37.20;;;;;;;;;;748841;187;918480;-65
2023/05/26 00:59:18;;;;;;;57.30;36.90;;;;;;;;;;738231;187;926975;-62
2023/05/26 01:01:44;;;;;;;58.70;34.17;;;;;;;;;;739702;187;923776;-67
2023/05/26 01:04:10;;;;;;;60.30;36.97;;;;;;;;;;745684;187;920888;-62
2023/05/26 01:06:36;;;;;;;65.83;35.57;;;;;;;;;;741216;187;818827;-62
2023/05/26 01:09:02;;;;;;;58.17;36.77;;;;;;;;;;736681;187;920509;-66
2023/05/26 01:11:27;;;;;;;59.70;37.27;;;;;;;;;;748425;186;919140;-65
2023/05/26 01:13:54;;;;;;;57.70;35.73;;;;;;;;;;737730;187;921702;-66
2023/05/26 01:16:21;;;;;;;56.13;33.03;;;;;;;;;;740850;188;813329;-65
2023/05/26 01:18:46;;;;;;;57.13;35.97;;;;;;;;;;740590;186;845105;-66
2023/05/26 01:21:13;;;;;;;56.53;33.23;;;;;;;;;;746458;187;919198;-66
2023/05/26 01:23:46;;;;;;;52.13;35.27;;;;;;;;;;731225;188;917450;-63
2023/05/26 01:26:16;;;;;;;64.67;35.60;;;;;;;;;;740129;187;817083;-62
2023/05/26 01:28:42;;;;;;;63.23;36.70;;;;;;;;;;741125;188;813704;-62
2023/05/26 01:31:08;;;;;;;60.80;37.87;;;;;;;;;;741523;189;854633;-62
2023/05/26 01:33:35;;;;;;;59.27;35.83;;;;;;;;;;745033;187;918858;-62
2023/05/26 01:35:59;;;;;;;60.27;36.30;;;;;;;;;;740229;184;818070;-65
2023/05/26 01:38:25;;;;;;;57.07;36.30;;;;;;;;;;740987;187;914917;-62
2023/05/26 01:40:51;;;;;;;40.10;28.90;;;;;;;;;;739802;187;919429;-62
2023/05/26 01:43:30;;;;;;;45.40;28.70;;;;;;;;;;718880;191;914081;-62
2023/05/26 01:45:56;;;;;;;44.70;30.60;;;;;;;;;;739154;186;918436;-62
2023/05/26 01:48:22;;;;;;;48.37;32.67;;;;;;;;;;745214;187;919843;-62
2023/05/26 01:50:48;;;;;;;44.73;30.50;;;;;;;;;;740873;187;919767;-66
2023/05/26 01:53:14;;;;;;;51.27;31.93;;;;;;;;;;741245;188;920649;-66
2023/05/26 01:55:40;;;;;;;44.00;28.90;;;;;;;;;;736382;188;918743;-62
2023/05/26 01:58:05;;;;;;;36.47;25.57;;;;;;;;;;740765;185;918971;-66
2023/05/26 02:00:31;;;;;;;47.50;26.07;;;;;;;;;;742195;186;927132;-65
2023/05/26 02:02:57;;;;;;;35.07;24.90;;;;;;;;;;745068;186;920356;-62
2023/05/26 02:05:23;;;;;;;33.03;23.30;;;;;;;;;;745380;187;819859;-66
2023/05/26 02:07:50;;;;;;;44.10;23.10;;;;;;;;;;743035;187;918703;-61
2023/05/26 02:10:15;;;;;;;34.77;24.30;;;;;;;;;;738607;187;918744;-61
2023/05/26 02:12:41;;;;;;;39.67;26.93;;;;;;;;;;743774;187;918296;-62
2023/05/26 02:15:07;;;;;;;39.27;27.10;;;;;;;;;;740235;187;917550;-64
2023/05/26 02:17:33;;;;;;;35.40;25.37;;;;;;;;;;741927;187;816219;-66
2023/05/26 02:19:59;;;;;;;41.60;26.00;;;;;;;;;;743743;188;918348;-64
2023/05/26 02:22:25;;;;;;;42.43;25.50;;;;;;;;;;743772;186;814339;-61
2023/05/26 02:24:51;;;;;;;40.30;25.20;;;;;;;;;;741691;187;917912;-66
2023/05/26 02:27:17;;;;;;;43.00;24.77;;;;;;;;;;739833;188;918321;-66
2023/05/26 02:29:43;;;;;;;35.17;23.60;;;;;;;;;;745286;187;920267;-61
2023/05/26 02:32:08;;;;;;;51.47;28.67;;;;;;;;;;738676;187;869257;-66
2023/05/26 02:34:34;;;;;;;35.20;21.80;;;;;;;;;;740507;188;922493;-65
2023/05/26 02:37:00;;;;;;;34.53;23.93;;;;;;;;;;740222;187;868828;-65
2023/05/26 02:39:26;;;;;;;42.57;25.33;;;;;;;;;;733786;187;918942;-64
2023/05/26 02:41:53;;;;;;;35.63;24.43;;;;;;;;;;736192;187;919132;-64
2023/05/26 02:44:18;;;;;;;37.63;21.60;;;;;;;;;;742532;187;917943;-65
2023/05/26 02:46:44;;;;;;;39.63;24.20;;;;;;;;;;737143;187;919884;-65
2023/05/26 02:49:09;;;;;;;33.53;22.83;;;;;;;;;;728573;191;911535;-65
2023/05/26 02:51:35;;;;;;;43.20;24.03;;;;;;;;;;732408;189;869249;-61
2023/05/26 02:54:01;;;;;;;34.63;19.73;;;;;;;;;;741710;187;864429;-65
2023/05/26 02:56:27;;;;;;;36.85;23.00;;;;;;;;;;735531;188;919625;-61
2023/05/26 02:58:53;;;;;;;32.10;22.00;;;;;;;;;;741371;186;818387;-62
2023/05/26 03:01:19;;;;;;;33.43;21.47;;;;;;;;;;744924;187;919487;-64
2023/05/26 03:03:44;;;;;;;34.72;21.15;;;;;;;;;;742529;187;919897;-61
2023/05/26 03:06:10;;;;;;;30.83;20.70;;;;;;;;;;734005;189;873381;-61
2023/05/26 03:08:37;;;;;;;37.67;21.80;;;;;;;;;;738995;187;818897;-64
2023/05/26 03:11:02;;;;;;;36.10;23.90;;;;;;;;;;733452;190;919675;-61
2023/05/26 03:13:28;;;;;;;39.33;26.00;;;;;;;;;;728303;189;919046;-62
2023/05/26 03:15:54;;;;;;;39.03;22.07;;;;;;;;;;733253;189;921149;-61
2023/05/26 03:18:20;;;;;;;33.00;21.02;;;;;;;;;;745005;188;813822;-66
2023/05/26 03:20:46;;;;;;;33.40;21.67;;;;;;;;;;737510;187;920527;-64
2023/05/26 03:23:11;;;;;;;43.87;24.03;;;;;;;;;;736362;188;918341;-61
2023/05/26 03:25:37;;;;;;;33.07;23.83;;;;;;;;;;747624;187;816785;-62
2023/05/26 03:28:03;;;;;;;61.60;35.40;;;;;;;;;;739307;187;820146;-61
2023/05/26 03:30:29;;;;;;;68.47;39.17;;;;;;;;;;740051;187;923032;-61
2023/05/26 03:32:55;;;;;;;72.97;42.07;;;;;;;;;;740257;187;917923;-61
2023/05/26 03:35:21;;;;;;;77.20;41.90;;;;;;;;;;728608;191;910639;-61
2023/05/26 03:37:47;;;;;;;68.77;41.87;;;;;;;;;;728223;190;917823;-65
2023/05/26 03:40:12;;;;;;;78.10;44.30;;;;;;;;;;719264;193;902965;-64
2023/05/26 03:42:38;;;;;;;74.67;42.00;;;;;;;;;;739381;188;870305;-65
2023/05/26 03:45:04;;;;;;;69.90;40.63;;;;;;;;;;735549;187;917849;-64
2023/05/26 03:47:30;;;;;;;75.60;42.00;;;;;;;;;;725496;191;918123;-66
2023/05/26 03:49:56;;;;;;;71.50;41.70;;;;;;;;;;747040;187;919092;-61
2023/05/26 03:52:22;;;;;;;86.57;43.03;;;;;;;;;;740095;187;919233;-65
2023/05/26 03:54:48;;;;;;;75.40;43.00;;;;;;;;;;741595;187;917295;-65
2023/05/26 03:57:14;;;;;;;81.97;43.13;;;;;;;;;;742540;188;867687;-61
2023/05/26 03:59:39;;;;;;;89.72;39.83;;;;;;;;;;739217;188;918850;-61
2023/05/26 04:02:05;;;;;;;68.70;40.20;;;;;;;;;;739140;187;919241;-61
2023/05/26 04:04:32;;;;;;;68.50;41.57;;;;;;;;;;743329;187;850857;-64
2023/05/26 04:06:58;;;;;;;66.90;40.77;;;;;;;;;;742550;186;822767;-60
2023/05/26 04:09:24;;;;;;;80.63;45.97;;;;;;;;;;747395;183;917628;-61
2023/05/26 04:11:49;;;;;;;66.60;39.40;;;;;;;;;;739722;187;915093;-61
2023/05/26 04:14:15;;;;;;;69.27;42.27;;;;;;;;;;745195;187;817001;-66
2023/05/26 04:16:41;;;;;;;69.33;41.10;;;;;;;;;;735861;188;862346;-63
2023/05/26 04:19:07;;;;;;;114.97;57.63;;;;;;;;;;740041;187;865785;-61
2023/05/26 04:21:33;;;;;;;83.23;49.07;;;;;;;;;;746112;186;919176;-61
2023/05/26 04:23:58;;;;;;;79.73;50.07;;;;;;;;;;742466;186;919952;-61
2023/05/26 04:26:32;;;;;;;109.73;65.83;;;;;;;;;;740928;187;916314;-65
2023/05/26 04:28:52;;;;;;;107.82;65.90;;;;;;;;;;742878;187;917807;-61
2023/05/26 04:31:16;;;;;;;74.83;44.27;;;;;;;;;;742635;186;913739;-61
2023/05/26 04:33:44;;;;;;;53.60;35.93;;;;;;;;;;741654;187;916300;-61
2023/05/26 04:36:08;;;;;;;53.00;35.87;;;;;;;;;;740847;187;919203;-62
2023/05/26 04:38:34;;;;;;;51.43;34.30;;;;;;;;;;743425;187;915320;-64
2023/05/26 04:41:00;;;;;;;53.60;35.97;;;;;;;;;;742987;186;914814;-65
2023/05/26 04:43:25;;;;;;;51.03;35.40;;;;;;;;;;738198;187;921266;-64
2023/05/26 04:45:51;;;;;;;57.70;39.07;;;;;;;;;;739508;187;921396;-64
2023/05/26 04:48:17;;;;;;;66.27;43.80;;;;;;;;;;739071;188;919483;-61
2023/05/26 04:50:43;;;;;;;63.67;38.00;;;;;;;;;;745463;187;626024;-60
2023/05/26 04:53:10;;;;;;;67.67;42.60;;;;;;;;;;747571;187;918112;-61
2023/05/26 04:55:35;;;;;;;79.20;48.33;;;;;;;;;;736329;186;917120;-65
2023/05/26 04:58:01;;;;;;;50.13;34.17;;;;;;;;;;740163;186;799055;-65
2023/05/26 05:00:26;;;;;;;58.57;36.27;;;;;;;;;;741979;187;917734;-63
2023/05/26 05:02:52;;;;;;;57.20;37.57;;;;;;;;;;748288;184;907402;-64
2023/05/26 05:05:18;;;;;;;51.60;34.93;;;;;;;;;;741858;186;915759;-64
2023/05/26 05:07:44;;;;;;;52.33;35.93;;;;;;;;;;742670;187;816252;-61
2023/05/26 05:10:10;;;;;;;45.30;31.97;;;;;;;;;;748605;187;813215;-64
2023/05/26 05:12:36;;;;;;;51.73;30.87;;;;;;;;;;741949;187;917782;-61
2023/05/26 05:15:01;;;;;;;48.33;34.43;;;;;;;;;;740534;188;859417;-63
2023/05/26 05:17:27;;;;;;;47.60;29.93;;;;;;;;;;743741;187;912395;-61
2023/05/26 05:19:53;;;;;;;50.67;33.43;;;;;;;;;;734341;187;902182;-62
2023/05/26 05:22:19;;;;;;;39.97;30.40;;;;;;;;;;734283;187;914101;-64
2023/05/26 05:24:46;;;;;;;48.75;30.17;;;;;;;;;;740157;187;921787;-64
2023/05/26 05:27:11;;;;;;;39.50;28.43;;;;;;;;;;748549;185;916046;-61
2023/05/26 05:29:37;;;;;;;35.60;26.30;;;;;;;;;;739538;187;919097;-62
2023/05/26 05:32:03;;;;;;;35.77;26.17;;;;;;;;;;738268;187;920547;-61
2023/05/26 05:34:29;;;;;;;41.50;28.10;;;;;;;;;;750305;186;916144;-64
2023/05/26 05:36:55;;;;;;;36.03;28.23;;;;;;;;;;736712;187;927937;-64
2023/05/26 05:39:21;;;;;;;36.13;24.67;;;;;;;;;;742334;188;915634;-61
2023/05/26 05:41:47;;;;;;;36.90;26.27;;;;;;;;;;746150;187;920826;-61
2023/05/26 05:44:13;;;;;;;33.10;23.97;;;;;;;;;;737207;187;921408;-62
2023/05/26 05:46:39;;;;;;;35.57;26.57;;;;;;;;;;740735;187;922207;-64
2023/05/26 05:49:04;;;;;;;34.60;23.57;;;;;;;;;;742945;187;919626;-61
2023/05/26 05:51:31;;;;;;;29.20;22.37;;;;;;;;;;739218;187;820605;-64
2023/05/26 05:53:56;;;;;;;34.43;21.83;;;;;;;;;;724846;189;921078;-65
2023/05/26 05:56:22;;;;;;;30.60;21.20;;;;;;;;;;736951;187;920088;-62
2023/05/26 05:58:48;;;;;;;30.77;20.00;;;;;;;;;;737495;187;917112;-61
2023/05/26 06:01:13;;;;;;;29.90;21.20;;;;;;;;;;740789;187;912806;-65
2023/05/26 06:03:39;;;;;;;29.90;20.00;;;;;;;;;;736934;187;918672;-66
2023/05/26 06:06:05;;;;;;;28.50;13.93;;;;;;;;;;740679;187;915343;-61
2023/05/26 06:08:31;;;;;;;27.20;16.20;;;;;;;;;;736828;188;818103;-65
2023/05/26 06:10:57;;;;;;;21.00;15.40;;;;;;;;;;735314;188;917246;-64
2023/05/26 06:13:23;;;;;;;25.37;18.17;;;;;;;;;;739314;188;918221;-65
2023/05/26 06:15:49;;;;;;;26.43;17.00;;;;;;;;;;737114;187;913373;-66
2023/05/26 06:18:14;;;;;;;23.07;16.43;;;;;;;;;;736101;188;919083;-65
2023/05/26 06:20:40;;;;;;;22.77;16.58;;;;;;;;;;738988;187;919191;-62
2023/05/26 06:23:06;;;;;;;17.97;9.97;;;;;;;;;;747045;186;941976;-61
2023/05/26 06:25:32;;;;;;;20.67;15.80;;;;;;;;;;740614;186;918915;-61
2023/05/26 06:27:58;;;;;;;22.73;15.70;;;;;;;;;;742286;186;920743;-65
2023/05/26 06:30:24;;;;;;;23.20;14.43;;;;;;;;;;741167;187;919316;-62
2023/05/26 06:32:50;;;;;;;24.80;15.57;;;;;;;;;;726642;191;922506;-65
2023/05/26 06:35:15;;;;;;;24.50;14.73;;;;;;;;;;730589;190;919775;-61
2023/05/26 06:37:41;;;;;;;23.53;15.50;;;;;;;;;;736181;191;919282;-61
2023/05/26 06:40:07;;;;;;;29.13;15.27;;;;;;;;;;714832;194;919560;-61
2023/05/26 06:42:33;;;;;;;21.80;14.23;;;;;;;;;;740231;187;914526;-61
2023/05/26 06:44:59;;;;;;;22.57;13.30;;;;;;;;;;755860;183;892490;-65
2023/05/26 06:47:25;;;;;;;24.23;14.47;;;;;;;;;;753878;183;919069;-61
2023/05/26 06:49:51;;;;;;;18.83;12.80;;;;;;;;;;750313;183;870782;-61
2023/05/26 06:52:17;;;;;;;18.53;11.80;;;;;;;;;;739410;187;920449;-61
2023/05/26 06:54:42;;;;;;;14.70;11.90;;;;;;;;;;746826;187;917540;-66
2023/05/26 06:57:08;;;;;;;18.00;11.07;;;;;;;;;;741904;187;924829;-61
2023/05/26 06:59:34;;;;;;;16.67;13.33;;;;;;;;;;740175;187;884616;-61
2023/05/26 07:02:00;;;;;;;19.53;11.33;;;;;;;;;;742664;187;828500;-65
2023/05/26 07:04:26;;;;;;;15.80;11.57;;;;;;;;;;744081;187;920619;-61
2023/05/26 07:06:52;;;;;;;14.77;9.93;;;;;;;;;;741434;187;918665;-61
2023/05/26 07:09:18;;;;;;;15.93;11.10;;;;;;;;;;740849;187;920969;-61
2023/05/26 07:11:43;;;;;;;16.80;12.00;;;;;;;;;;740694;187;919987;-64
2023/05/26 07:14:10;;;;;;;15.33;10.30;;;;;;;;;;736150;186;923914;-61
2023/05/26 07:16:35;;;;;;;20.93;12.27;;;;;;;;;;734171;187;922135;-65
2023/05/26 07:19:01;;;;;;;19.97;12.80;;;;;;;;;;737561;190;920418;-66
2023/05/26 07:21:27;;;;;;;13.77;9.60;;;;;;;;;;736628;187;918934;-61
2023/05/26 07:23:53;;;;;;;15.83;11.90;;;;;;;;;;742419;186;920089;-65
2023/05/26 07:26:18;;;;;;;18.83;13.20;;;;;;;;;;744643;188;871115;-66
2023/05/26 07:28:45;;;;;;;13.50;10.20;;;;;;;;;;738471;188;918512;-61
2023/05/26 07:31:10;;;;;;;18.70;13.87;;;;;;;;;;739081;188;916438;-61
2023/05/26 07:33:36;;;;;;;18.30;11.37;;;;;;;;;;754402;186;899109;-61
2023/05/26 07:36:02;;;;;;;21.20;11.12;;;;;;;;;;740423;186;921102;-60
2023/05/26 07:38:28;;;;;;;16.20;11.23;;;;;;;;;;741684;187;917649;-65
2023/05/26 07:40:54;;;;;;;15.43;8.70;;;;;;;;;;740133;188;919797;-62
2023/05/26 07:43:20;;;;;;;15.77;9.87;;;;;;;;;;742003;186;877791;-59
2023/05/26 07:45:45;;;;;;;14.20;9.40;;;;;;;;;;742497;187;873893;-59
2023/05/26 07:48:11;;;;;;;14.18;7.53;;;;;;;;;;741772;187;927515;-61
2023/05/26 07:50:37;;;;;;;13.33;9.20;;;;;;;;;;738538;187;916544;-59
2023/05/26 07:53:03;;;;;;;14.90;9.37;;;;;;;;;;736344;187;919626;-64
2023/05/26 07:55:29;;;;;;;12.23;8.83;;;;;;;;;;741172;187;823203;-59
2023/05/26 07:57:55;;;;;;;13.33;9.40;;;;;;;;;;747981;186;918512;-64
2023/05/26 08:00:21;;;;;;;11.87;7.90;;;;;;;;;;741122;186;920456;-59
2023/05/26 08:02:47;;;;;;;15.70;9.50;;;;;;;;;;738363;187;816307;-59
2023/05/26 08:05:13;;;;;;;16.43;8.93;;;;;;;;;;741591;188;914465;-65
2023/05/26 08:07:38;;;;;;;13.53;8.30;;;;;;;;;;741478;187;911791;-65
2023/05/26 08:10:05;;;;;;;13.00;8.03;;;;;;;;;;736447;187;916342;-65
2023/05/26 08:12:31;;;;;;;10.10;7.77;;;;;;;;;;737199;187;904856;-59
2023/05/26 08:14:56;;;;;;;17.07;8.33;;;;;;;;;;742235;187;924660;-66
2023/05/26 08:17:23;;;;;;;10.27;7.60;;;;;;;;;;740719;186;920510;-60
2023/05/26 08:19:49;;;;;;;17.50;9.43;;;;;;;;;;736025;188;916232;-60
2023/05/26 08:22:14;;;;;;;12.03;7.17;;;;;;;;;;745769;187;918439;-65
2023/05/26 08:24:40;;;;;;;10.00;8.10;;;;;;;;;;736705;189;919380;-60
2023/05/26 08:27:06;;;;;;;12.87;9.40;;;;;;;;;;739520;187;920600;-64
2023/05/26 08:29:32;;;;;;;23.67;10.27;;;;;;;;;;742229;188;918139;-65
2023/05/26 08:31:58;;;;;;;9.47;6.43;;;;;;;;;;730607;191;1020382;-66
2023/05/26 08:34:24;;;;;;;11.37;7.07;;;;;;;;;;728109;191;920909;-64
2023/05/26 08:36:50;;;;;;;10.93;7.10;;;;;;;;;;739608;187;923830;-60
2023/05/26 08:39:16;;;;;;;11.83;7.47;;;;;;;;;;743842;187;818907;-66
2023/05/26 08:41:45;;;;;;;11.63;8.07;;;;;;;;;;738203;187;939494;-64
2023/05/26 08:44:11;;;;;;;12.40;6.47;;;;;;;;;;737021;187;920082;-66
2023/05/26 08:46:37;;;;;;;13.20;8.90;;;;;;;;;;745175;187;961766;-59
2023/05/26 08:49:03;;;;;;;12.67;7.63;;;;;;;;;;739107;187;917450;-66
2023/05/26 08:51:30;;;;;;;14.23;8.37;;;;;;;;;;740576;187;918551;-65
2023/05/26 08:53:55;;;;;;;13.30;7.30;;;;;;;;;;741494;187;905814;-60
2023/05/26 08:56:21;;;;;;;11.70;8.17;;;;;;;;;;740509;187;1022394;-65
2023/05/26 08:58:47;;;;;;;16.17;7.83;;;;;;;;;;742441;183;918249;-65
2023/05/26 09:01:12;;;;;;;13.13;8.23;;;;;;;;;;733466;187;942330;-66
2023/05/26 09:03:38;;;;;;;10.60;8.00;;;;;;;;;;738052;187;913131;-66
2023/05/26 09:06:04;;;;;;;12.23;7.20;;;;;;;;;;741894;186;919146;-66
2023/05/26 09:08:31;;;;;;;11.80;6.60;;;;;;;;;;742858;186;919980;-60
2023/05/26 09:10:56;;;;;;;10.10;7.80;;;;;;;;;;747364;187;916429;-66
2023/05/26 09:13:22;;;;;;;10.60;7.70;;;;;;;;;;743151;186;919273;-67
2023/05/26 09:15:50;;;;;;;13.93;7.87;;;;;;;;;;737866;187;921581;-66
2023/05/26 09:18:15;;;;;;;34.43;15.13;;;;;;;;;;737574;187;922957;-65
2023/05/26 09:20:42;;;;;;;28.83;12.90;;;;;;;;;;739017;188;1016167;-65
2023/05/26 09:23:08;;;;;;;14.20;7.77;;;;;;;;;;739897;187;916423;-60
2023/05/26 09:25:33;;;;;;;19.13;10.03;;;;;;;;;;737576;188;887907;-66
2023/05/26 09:28:01;;;;;;;12.50;8.40;;;;;;;;;;743044;187;918923;-61
2023/05/26 09:30:27;;;;;;;19.50;8.70;;;;;;;;;;738775;188;918580;-60
2023/05/26 09:32:53;;;;;;;11.40;6.90;;;;;;;;;;740458;187;919488;-67
2023/05/26 09:35:19;;;;;;;12.77;8.27;;;;;;;;;;742990;187;918573;-60
2023/05/26 09:37:45;;;;;;;11.63;7.90;;;;;;;;;;744171;187;816909;-61
2023/05/26 09:40:12;;;;;;;11.07;8.90;;;;;;;;;;733308;187;940156;-63
2023/05/26 09:42:37;;;;;;;10.57;8.13;;;;;;;;;;743602;187;818284;-59
2023/05/26 09:45:03;;;;;;;13.40;10.53;;;;;;;;;;738418;183;899736;-61
2023/05/26 09:47:32;;;;;;;16.53;10.37;;;;;;;;;;741660;187;917024;-68
2023/05/26 09:50:05;;;;;;;13.97;9.60;;;;;;;;;;740093;187;817214;-60
2023/05/26 09:52:31;;;;;;;15.47;10.40;;;;;;;;;;740998;187;889566;-67
2023/05/26 09:54:57;;;;;;;11.90;10.37;;;;;;;;;;737331;185;815747;-60
2023/05/26 09:57:22;;;;;;;14.77;11.20;;;;;;;;;;742639;187;918294;-68
2023/05/26 09:59:48;;;;;;;15.40;10.50;;;;;;;;;;736264;187;940349;-66
2023/05/26 10:02:22;;;;;;;13.57;9.30;;;;;;;;;;738607;187;917860;-69
2023/05/26 10:04:49;;;;;;;16.90;11.10;;;;;;;;;;737966;187;943515;-61
2023/05/26 10:07:14;;;;;;;16.50;11.17;;;;;;;;;;738054;188;854141;-60
2023/05/26 10:09:40;;;;;;;13.50;10.40;;;;;;;;;;737829;188;991057;-64
2023/05/26 10:12:06;;;;;;;13.97;11.23;;;;;;;;;;742009;188;919548;-67
2023/05/26 10:14:31;;;;;;;21.80;12.07;;;;;;;;;;745469;187;919056;-61
2023/05/26 10:16:57;;;;;;;16.00;12.10;;;;;;;;;;741039;187;871225;-67
2023/05/26 10:19:23;;;;;;;15.87;11.10;;;;;;;;;;742765;186;817500;-61
2023/05/26 10:21:49;;;;;;;40.80;16.40;;;;;;;;;;738326;186;922238;-67
2023/05/26 10:24:18;;;;;;;21.23;14.23;;;;;;;;;;739687;186;916290;-60
2023/05/26 10:26:52;;;;;;;13.43;10.97;;;;;;;;;;741390;188;918890;-61
2023/05/26 10:29:18;;;;;;;16.50;11.50;;;;;;;;;;750326;186;905888;-68
2023/05/26 10:31:44;;;;;;;17.00;12.40;;;;;;;;;;739470;186;918821;-61
2023/05/26 10:34:14;;;;;;;14.93;10.10;;;;;;;;;;730358;190;909765;-61
2023/05/26 10:36:41;;;;;;;12.10;8.83;;;;;;;;;;740002;187;832738;-61
2023/05/26 10:39:09;;;;;;;18.63;11.53;;;;;;;;;;738205;186;940206;-62
2023/05/26 10:41:35;;;;;;;17.23;10.87;;;;;;;;;;743363;186;895760;-61
2023/05/26 10:44:01;;;;;;;14.77;10.00;;;;;;;;;;743688;187;816786;-68
2023/05/26 10:46:33;;;;;;;14.00;10.60;;;;;;;;;;747085;187;918796;-68
2023/05/26 10:48:58;;;;;;;14.47;11.40;;;;;;;;;;737041;187;918442;-67
2023/05/26 10:51:24;;;;;;;14.40;11.60;;;;;;;;;;735610;189;932276;-60
2023/05/26 10:53:51;;;;;;;15.27;10.53;;;;;;;;;;738300;187;937576;-61
2023/05/26 10:56:18;;;;;;;11.13;7.80;;;;;;;;;;743726;183;918211;-68
2023/05/26 10:58:46;;;;;;;10.23;8.63;;;;;;;;;;741566;187;819896;-60
2023/05/26 11:01:12;;;;;;;11.60;10.33;;;;;;;;;;743117;187;819072;-68
2023/05/26 11:03:41;;;;;;;10.63;7.80;;;;;;;;;;741465;187;817791;-61
2023/05/26 11:06:07;;;;;;;12.43;10.17;;;;;;;;;;739619;187;918168;-60
2023/05/26 11:08:33;;;;;;;13.40;9.20;;;;;;;;;;738288;188;919301;-61
2023/05/26 11:11:00;;;;;;;11.67;7.90;;;;;;;;;;742254;187;918845;-68
2023/05/26 11:13:31;;;;;;;10.63;8.40;;;;;;;;;;740744;187;919395;-68
2023/05/26 11:15:57;;;;;;;10.50;7.90;;;;;;;;;;737862;187;816153;-61
2023/05/26 11:18:24;;;;;;;10.53;7.73;;;;;;;;;;736182;189;886704;-68
2023/05/26 11:20:49;;;;;;;12.30;6.47;;;;;;;;;;741252;188;843594;-61
2023/05/26 11:23:14;;;;;;;12.30;7.33;;;;;;;;;;741087;187;921173;-61
2023/05/26 11:25:40;;;;;;;16.30;7.60;;;;;;;;;;749308;183;916321;-61
2023/05/26 11:28:06;;;;;;;13.23;7.40;;;;;;;;;;740907;187;919143;-67
2023/05/26 11:30:32;;;;;;;10.20;6.47;;;;;;;;;;754060;184;916881;-61
2023/05/26 11:32:58;;;;;;;10.77;7.50;;;;;;;;;;741795;186;920164;-68
2023/05/26 11:35:24;;;;;;;10.03;6.37;;;;;;;;;;745221;187;918746;-61
2023/05/26 11:37:50;;;;;;;10.93;6.80;;;;;;;;;;746095;187;816808;-61
2023/05/26 11:40:16;;;;;;;9.33;6.67;;;;;;;;;;735851;188;919329;-61
2023/05/26 11:42:44;;;;;;;9.43;6.37;;;;;;;;;;744547;187;915549;-66
2023/05/26 11:45:10;;;;;;;8.03;6.00;;;;;;;;;;748035;187;919677;-61
2023/05/26 11:47:36;;;;;;;9.60;6.80;;;;;;;;;;740040;188;917086;-61
2023/05/26 11:50:06;;;;;;;10.33;6.40;;;;;;;;;;735591;187;923103;-68
2023/05/26 11:52:32;;;;;;;8.90;6.00;;;;;;;;;;742857;187;923372;-70
2023/05/26 11:54:59;;;;;;;10.63;6.93;;;;;;;;;;744230;188;818864;-68
2023/05/26 11:57:25;;;;;;;12.27;7.87;;;;;;;;;;738584;187;916607;-62
2023/05/26 11:59:51;;;;;;;11.70;7.25;;;;;;;;;;739904;187;914899;-61
2023/05/26 12:02:17;;;;;;;12.07;6.30;;;;;;;;;;747802;187;760169;-61
2023/05/26 12:04:42;;;;;;;11.40;7.90;;;;;;;;;;741532;187;778877;-61
2023/05/26 12:07:08;;;;;;;11.80;6.93;;;;;;;;;;737616;187;817887;-62
2023/05/26 12:09:34;;;;;;;7.67;4.47;;;;;;;;;;738514;187;910437;-62
2023/05/26 12:12:02;;;;;;;13.50;6.83;;;;;;;;;;738627;187;917728;-69
2023/05/26 12:14:26;;;;;;;14.00;5.60;;;;;;;;;;739987;187;910703;-69
2023/05/26 12:16:52;;;;;;;9.67;6.83;;;;;;;;;;737124;188;914075;-61
2023/05/26 12:19:18;;;;;;;8.20;6.23;;;;;;;;;;740887;187;900663;-69
2023/05/26 12:21:43;;;;;;;13.43;7.30;;;;;;;;;;734076;187;908195;-61
2023/05/26 12:24:09;;;;;;;9.20;6.53;;;;;;;;;;736716;188;918963;-67
2023/05/26 12:26:35;;;;;;;8.37;6.00;;;;;;;;;;738128;187;919842;-61
2023/05/26 12:29:09;;;;;;;15.63;6.77;;;;;;;;;;735050;187;919132;-68
2023/05/26 12:31:51;;;;;;;9.10;6.43;;;;;;;;;;737460;187;920372;-60
2023/05/26 12:34:18;;;;;;;9.80;6.17;;;;;;;;;;742885;187;924233;-61
2023/05/26 12:36:44;;;;;;;10.20;5.90;;;;;;;;;;741625;187;920319;-62
2023/05/26 12:39:10;;;;;;;6.13;4.33;;;;;;;;;;742260;188;914977;-61
2023/05/26 12:41:36;;;;;;;10.83;6.00;;;;;;;;;;738832;187;919423;-68
2023/05/26 12:44:02;;;;;;;7.50;4.65;;;;;;;;;;742603;186;913546;-61
2023/05/26 12:46:28;;;;;;;11.40;6.20;;;;;;;;;;745997;186;919151;-61
2023/05/26 12:48:54;;;;;;;9.10;6.13;;;;;;;;;;740599;187;919440;-61
2023/05/26 12:51:20;;;;;;;6.80;5.87;;;;;;;;;;739658;187;919726;-68
2023/05/26 12:53:46;;;;;;;8.67;5.00;;;;;;;;;;741956;187;819217;-68
2023/05/26 12:56:12;;;;;;;10.10;5.63;;;;;;;;;;750854;187;920893;-63
2023/05/26 12:58:38;;;;;;;8.73;5.73;;;;;;;;;;740940;187;919225;-68
2023/05/26 13:01:03;;;;;;;9.70;6.03;;;;;;;;;;736382;187;983527;-68
2023/05/26 13:03:29;;;;;;;9.20;5.80;;;;;;;;;;740192;188;919763;-61
2023/05/26 13:05:55;;;;;;;8.80;6.40;;;;;;;;;;736278;187;892758;-68
2023/05/26 13:08:21;;;;;;;9.80;6.90;;;;;;;;;;737183;187;918958;-69
2023/05/26 13:10:47;;;;;;;13.13;5.97;;;;;;;;;;743902;187;910647;-61
2023/05/26 13:13:13;;;;;;;10.63;6.57;;;;;;;;;;734121;186;918825;-68
2023/05/26 13:15:38;;;;;;;9.23;6.90;;;;;;;;;;733490;189;918806;-71
2023/05/26 13:18:04;;;;;;;9.53;6.13;;;;;;;;;;736762;187;919353;-68
2023/05/26 13:20:30;;;;;;;10.37;6.00;;;;;;;;;;742907;187;922106;-61
2023/05/26 13:22:56;;;;;;;9.87;5.50;;;;;;;;;;737194;187;1021373;-69
2023/05/26 13:25:22;;;;;;;11.03;6.30;;;;;;;;;;735197;187;919450;-69
2023/05/26 13:27:48;;;;;;;13.93;7.73;;;;;;;;;;745490;187;827261;-62
2023/05/26 13:30:14;;;;;;;13.30;5.80;;;;;;;;;;742423;187;902298;-69
2023/05/26 13:32:40;;;;;;;13.73;6.90;;;;;;;;;;739849;187;816912;-62
2023/05/26 13:35:06;;;;;;;13.90;7.37;;;;;;;;;;742698;188;819135;-62
2023/05/26 13:37:32;;;;;;;9.33;5.50;;;;;;;;;;731654;188;1734075;-62
2023/05/26 13:39:58;;;;;;;10.93;6.60;;;;;;;;;;737970;188;938210;-61
2023/05/26 13:42:24;;;;;;;10.30;6.90;;;;;;;;;;738998;187;928973;-62
2023/05/26 13:44:50;;;;;;;10.90;7.37;;;;;;;;;;735642;187;918000;-62
2023/05/26 13:47:16;;;;;;;9.30;5.17;;;;;;;;;;727458;188;918295;-69
2023/05/26 13:49:42;;;;;;;11.40;5.80;;;;;;;;;;717908;194;1121625;-73
2023/05/26 13:52:08;;;;;;;10.07;4.60;;;;;;;;;;738118;188;969660;-70
2023/05/26 13:54:33;;;;;;;8.40;5.27;;;;;;;;;;738246;187;910937;-71
2023/05/26 13:57:00;;;;;;;9.80;6.37;;;;;;;;;;743743;186;1020771;-61
2023/05/26 13:59:25;;;;;;;15.30;6.37;;;;;;;;;;746925;186;1021807;-62
2023/05/26 14:01:51;;;;;;;12.10;6.10;;;;;;;;;;742223;188;919831;-61